Hilmoe, South Dakota
Current Conditions -  °F | °C
As of 5:53 PM on Sunday 23 Nov 2014 (Local Time) from KPIR Reporting Station
Broken Clouds Broken Clouds  
Wind Chill: 19°   Ceiling: 3800
Heat Index: 32°   Visibility: 10mi
Dew Point: 21°   Wind: 24mph
Humidity: 64%   Direction: 320°NW
Pressure: 29.66"   Gusts: 36mph
Location:  43.909°N, 100.128°W
Report Text: KPIR 232353Z AUTO 32021G31KT 10SM BKN038 00/M06 A2966 RMK AO2 PK WND 31032/2342 SLP055 T00001061 10050 21006 51016
Loading
Personal Weather Stations






























Interactive Weather Map New forecast layout! Learn more

10-Day Weather Forecast

Advertisements
Track Severe Weather on mobile